createdAt,value
2022-08-08T00:01:06.483Z,69.94
2022-08-08T00:03:54.723Z,69.53
2022-08-08T00:06:42.670Z,70.40
2022-08-08T00:09:18.181Z,68.98
2022-08-08T00:12:09.613Z,69.18
2022-08-08T00:14:47.954Z,68.29
2022-08-08T00:17:58.626Z,70.46
2022-08-08T00:20:33.225Z,69.70
2022-08-08T00:23:08.006Z,69.52
2022-08-08T00:25:46.390Z,69.81
2022-08-08T00:28:35.769Z,69.80
2022-08-08T00:32:16.321Z,69.60
2022-08-08T00:34:46.002Z,69.54
2022-08-08T00:37:48.248Z,69.19
2022-08-08T00:41:06.709Z,69.01
2022-08-08T00:43:40.278Z,68.88
2022-08-08T00:46:26.914Z,69.40
2022-08-08T00:49:22.447Z,70.25
2022-08-08T00:52:08.923Z,69.79
2022-08-08T00:55:05.998Z,69.88
2022-08-08T00:57:57.037Z,69.16
2022-08-08T01:00:28.182Z,68.59
2022-08-08T01:04:00.015Z,69.25
2022-08-08T01:06:18.182Z,71.85
2022-08-08T01:09:35.033Z,72.08
2022-08-08T01:11:54.104Z,73.74
2022-08-08T01:14:54.219Z,70.65
2022-08-08T01:17:17.881Z,72.05
2022-08-08T01:20:02.117Z,70.84
2022-08-08T01:22:40.207Z,71.11
2022-08-08T01:25:14.415Z,73.59
2022-08-08T01:28:02.809Z,73.78
2022-08-08T01:30:31.214Z,72.80
2022-08-08T01:33:24.068Z,72.81
2022-08-08T01:36:13.501Z,72.66
2022-08-08T01:39:00.828Z,72.25
2022-08-08T01:41:34.398Z,71.70
2022-08-08T01:44:20.411Z,75.12
2022-08-08T01:46:56.514Z,73.52
2022-08-08T01:49:46.174Z,73.00
2022-08-08T01:52:59.135Z,74.09
2022-08-08T01:56:25.993Z,75.56
2022-08-08T01:58:38.701Z,72.56
2022-08-08T02:02:00.307Z,72.13
2022-08-08T02:04:28.546Z,72.44
2022-08-08T02:06:56.691Z,72.34
2022-08-08T02:10:01.757Z,72.83
2022-08-08T02:12:40.732Z,72.69
2022-08-08T02:15:12.510Z,72.41
2022-08-08T02:17:58.295Z,72.56
2022-08-08T02:21:00.786Z,71.91
2022-08-08T02:23:31.875Z,70.48
2022-08-08T02:26:21.874Z,72.25
2022-08-08T02:28:58.539Z,71.93
2022-08-08T02:32:00.998Z,71.84
2022-08-08T02:34:33.303Z,71.49
2022-08-08T02:37:09.988Z,72.05
2022-08-08T02:40:18.714Z,72.68
2022-08-08T02:44:38.767Z,72.54
2022-08-08T02:46:13.480Z,73.11
2022-08-08T02:48:56.254Z,71.93
2022-08-08T02:51:55.064Z,73.19
2022-08-08T02:54:38.797Z,72.38
2022-08-08T02:57:12.361Z,72.24
2022-08-08T02:59:57.580Z,72.45
2022-08-08T03:02:32.297Z,72.50
2022-08-08T03:05:22.389Z,72.52
2022-08-08T03:07:57.940Z,72.51
2022-08-08T03:10:33.485Z,72.78
2022-08-08T03:13:34.042Z,73.00
2022-08-08T03:16:19.789Z,74.34
2022-08-08T03:19:21.605Z,74.37
2022-08-08T03:21:58.338Z,74.98
2022-08-08T03:24:27.212Z,74.20
2022-08-08T03:27:02.657Z,75.62
2022-08-08T03:29:51.287Z,72.68
2022-08-08T03:32:41.279Z,73.80
2022-08-08T03:35:10.432Z,74.25
2022-08-08T03:38:54.722Z,72.60
2022-08-08T03:40:29.153Z,73.86
2022-08-08T03:42:58.781Z,74.71
2022-08-08T03:46:07.358Z,75.06
2022-08-08T03:49:09.120Z,74.16
2022-08-08T03:51:19.497Z,73.80
2022-08-08T03:54:06.511Z,73.28
2022-08-08T03:56:35.783Z,74.33
2022-08-08T03:59:03.133Z,74.45
2022-08-08T04:02:15.646Z,75.52
2022-08-08T04:04:30.720Z,73.25
2022-08-08T04:07:01.187Z,73.46
2022-08-08T04:09:30.863Z,74.55
2022-08-08T04:12:16.332Z,74.00
2022-08-08T04:14:45.363Z,74.16
2022-08-08T04:17:22.568Z,74.44
2022-08-08T04:20:01.953Z,73.75
2022-08-08T04:22:30.434Z,74.43
2022-08-08T04:24:57.929Z,73.76
2022-08-08T04:28:03.382Z,73.45
2022-08-08T04:30:17.897Z,73.11
2022-08-08T04:32:48.237Z,73.28
2022-08-08T04:35:18.035Z,74.72
2022-08-08T04:37:49.156Z,73.90
2022-08-08T04:40:17.751Z,74.42
2022-08-08T04:42:56.007Z,72.81
2022-08-08T04:45:25.812Z,73.85
2022-08-08T04:47:54.145Z,74.16
2022-08-08T04:50:25.161Z,74.70
2022-08-08T04:53:01.201Z,74.38
2022-08-08T04:55:37.858Z,73.25
2022-08-08T04:58:22.418Z,72.79
2022-08-08T05:00:49.994Z,73.03
2022-08-08T05:04:09.033Z,73.60
2022-08-08T05:06:13.169Z,74.08
2022-08-08T05:08:46.370Z,73.36
2022-08-08T05:11:23.862Z,72.30
2022-08-08T05:13:57.780Z,72.67
2022-08-08T05:16:51.481Z,73.14
2022-08-08T05:20:12.593Z,71.75
2022-08-08T05:22:05.411Z,72.91
2022-08-08T05:24:34.520Z,73.28
2022-08-08T05:27:04.745Z,71.59
2022-08-08T05:29:32.055Z,71.75
2022-08-08T05:32:06.607Z,72.37
2022-08-08T05:34:36.304Z,72.52
2022-08-08T05:37:07.613Z,72.19
2022-08-08T05:39:50.113Z,71.43
2022-08-08T05:42:19.299Z,72.32
2022-08-08T05:44:49.146Z,71.42
2022-08-08T05:47:21.006Z,71.45
2022-08-08T05:49:54.241Z,72.39
2022-08-08T05:52:31.779Z,71.78
2022-08-08T05:55:05.988Z,72.24
2022-08-08T05:58:04.555Z,71.99
2022-08-08T06:00:25.374Z,71.66
2022-08-08T06:03:17.559Z,71.30
2022-08-08T06:05:56.742Z,71.24
2022-08-08T06:08:34.587Z,70.59
2022-08-08T06:11:03.225Z,70.64
2022-08-08T06:13:36.168Z,70.45
2022-08-08T06:16:14.737Z,71.81
2022-08-08T06:18:42.828Z,71.42
2022-08-08T06:21:28.099Z,70.41
2022-08-08T06:24:04.873Z,69.88
2022-08-08T06:26:45.230Z,70.64
2022-08-08T06:29:49.425Z,70.23
2022-08-08T06:32:11.446Z,70.44
2022-08-08T06:34:52.592Z,70.96
2022-08-08T06:37:27.999Z,70.02
2022-08-08T06:39:57.207Z,69.71
2022-08-08T06:42:26.269Z,69.22
2022-08-08T06:44:55.677Z,69.50
2022-08-08T06:47:22.954Z,69.94
2022-08-08T06:50:01.092Z,69.74
2022-08-08T06:52:32.057Z,69.42
2022-08-08T06:55:01.220Z,69.22
2022-08-08T06:57:29.344Z,68.98
2022-08-08T07:00:12.742Z,68.98
2022-08-08T07:02:45.273Z,69.52
2022-08-08T07:05:20.528Z,70.12
2022-08-08T07:07:55.493Z,68.63
2022-08-08T07:10:24.379Z,68.43
2022-08-08T07:12:55.785Z,68.78
2022-08-08T07:16:04.970Z,67.61
2022-08-08T07:18:42.678Z,67.28
2022-08-08T07:21:18.878Z,67.17
2022-08-08T07:24:01.818Z,67.27
2022-08-08T07:26:35.596Z,66.60
2022-08-08T07:29:05.650Z,66.21
2022-08-08T07:31:35.856Z,65.64
2022-08-08T07:34:08.836Z,65.06
2022-08-08T07:36:37.597Z,64.53
2022-08-08T07:39:18.010Z,62.43
2022-08-08T07:42:03.755Z,63.71
2022-08-08T07:44:38.185Z,63.04
2022-08-08T07:47:08.882Z,62.33
2022-08-08T07:49:40.205Z,61.88
2022-08-08T07:52:08.427Z,60.84
2022-08-08T07:54:51.490Z,60.45
2022-08-08T07:57:26.677Z,60.05
2022-08-08T08:00:05.036Z,60.14
2022-08-08T08:02:51.751Z,58.72
2022-08-08T08:05:33.561Z,58.46
2022-08-08T08:08:05.310Z,58.22
2022-08-08T08:10:35.557Z,58.67
2022-08-08T08:13:25.409Z,57.74
2022-08-08T08:16:08.843Z,57.83
2022-08-08T08:18:55.575Z,55.67
2022-08-08T08:21:43.984Z,56.90
2022-08-08T08:24:13.716Z,56.58
2022-08-08T08:26:52.530Z,55.28
2022-08-08T08:29:22.118Z,54.60
2022-08-08T08:31:53.878Z,54.81
2022-08-08T08:34:31.856Z,55.20
2022-08-08T08:37:00.245Z,54.05
2022-08-08T08:39:59.234Z,53.83
2022-08-08T08:42:29.233Z,53.18
2022-08-08T08:45:00.579Z,52.25
2022-08-08T08:47:33.729Z,52.84
2022-08-08T08:50:31.655Z,51.95
2022-08-08T08:53:04.967Z,51.34
2022-08-08T08:55:49.479Z,51.50
2022-08-08T08:58:24.201Z,51.49
2022-08-08T09:01:08.499Z,49.72
2022-08-08T09:03:46.638Z,49.24
2022-08-08T09:06:26.057Z,48.52
2022-08-08T09:08:58.586Z,49.67
2022-08-08T09:11:33.073Z,48.68
2022-08-08T09:14:01.617Z,49.20
2022-08-08T09:16:32.694Z,48.16
2022-08-08T09:19:00.281Z,48.13
2022-08-08T09:21:57.609Z,46.87
2022-08-08T09:24:17.762Z,47.25
2022-08-08T09:26:52.497Z,47.14
2022-08-08T09:29:24.563Z,46.40
2022-08-08T09:32:04.065Z,46.50
2022-08-08T09:34:35.112Z,45.63
2022-08-08T09:37:39.648Z,46.83
2022-08-08T09:40:01.327Z,44.75
2022-08-08T09:42:44.185Z,44.63
2022-08-08T09:46:00.749Z,46.11
2022-08-08T09:48:21.904Z,44.33
2022-08-08T09:50:56.129Z,44.15
2022-08-08T09:53:31.957Z,42.04
2022-08-08T09:56:21.596Z,42.13
2022-08-08T09:58:54.629Z,42.39
2022-08-08T10:02:00.270Z,38.33
2022-08-08T10:04:41.799Z,40.38
2022-08-08T10:07:07.524Z,39.92
2022-08-08T10:09:35.913Z,38.52
2022-08-08T10:12:37.712Z,38.43
2022-08-08T10:15:17.979Z,37.95
2022-08-08T10:18:06.087Z,36.82
2022-08-08T10:21:00.184Z,38.44
2022-08-08T10:23:42.090Z,37.75
2022-08-08T10:26:26.100Z,37.30
2022-08-08T10:29:05.372Z,36.92
2022-08-08T10:31:52.821Z,36.23
2022-08-08T10:34:23.230Z,33.23
2022-08-08T10:36:51.694Z,34.53
2022-08-08T10:39:23.273Z,33.92
2022-08-08T10:42:14.778Z,32.86
2022-08-08T10:44:59.408Z,32.95
2022-08-08T10:47:26.695Z,32.33
2022-08-08T10:50:07.177Z,33.74
2022-08-08T10:52:35.692Z,31.44
2022-08-08T10:55:07.153Z,32.52
2022-08-08T10:57:50.000Z,31.79
2022-08-08T11:00:25.498Z,30.20
2022-08-08T11:02:57.250Z,30.47
2022-08-08T11:05:27.526Z,30.51
2022-08-08T11:08:39.049Z,28.55
2022-08-08T11:11:32.289Z,28.25
2022-08-08T11:14:00.977Z,30.44
2022-08-08T11:16:32.927Z,29.08
2022-08-08T11:19:01.931Z,31.06
2022-08-08T11:21:34.855Z,30.96
2022-08-08T11:24:06.341Z,31.23
2022-08-08T11:26:34.758Z,30.88
2022-08-08T11:29:06.540Z,30.36
2022-08-08T11:31:43.617Z,30.62
2022-08-08T11:34:24.444Z,29.36
2022-08-08T11:36:59.737Z,28.73
2022-08-08T11:39:27.493Z,29.76
2022-08-08T11:42:09.186Z,30.74
2022-08-08T11:44:37.361Z,31.24
2022-08-08T11:47:04.621Z,31.36
2022-08-08T11:49:40.677Z,29.88
2022-08-08T11:52:18.305Z,28.40
2022-08-08T11:54:56.422Z,28.61
2022-08-08T11:57:27.684Z,29.43
2022-08-08T12:00:01.977Z,28.38
2022-08-08T12:02:33.924Z,27.82
2022-08-08T12:05:02.067Z,27.90
2022-08-08T12:07:29.462Z,26.89
2022-08-08T12:10:09.751Z,28.21
2022-08-08T12:12:42.120Z,29.20
2022-08-08T12:15:24.722Z,28.97
2022-08-08T12:17:52.014Z,26.65
2022-08-08T12:20:19.377Z,26.88
2022-08-08T12:22:48.762Z,25.69
2022-08-08T12:25:30.980Z,26.19
2022-08-08T12:28:14.350Z,26.69
2022-08-08T12:30:47.880Z,24.99
2022-08-08T12:33:24.421Z,22.53
2022-08-08T12:36:11.594Z,25.33
2022-08-08T12:38:49.037Z,23.94
2022-08-08T12:41:34.924Z,24.87
2022-08-08T12:44:08.375Z,25.51
2022-08-08T12:46:36.540Z,26.10
2022-08-08T12:49:25.047Z,26.02
2022-08-08T12:51:59.248Z,26.79
2022-08-08T12:54:35.920Z,26.63
2022-08-08T12:57:18.775Z,26.11
2022-08-08T13:00:04.171Z,25.94
2022-08-08T13:02:51.118Z,26.49
2022-08-08T13:05:26.641Z,25.00
2022-08-08T13:08:17.814Z,24.13
2022-08-08T13:10:56.155Z,24.65
2022-08-08T13:13:28.595Z,24.45
2022-08-08T13:16:25.987Z,24.95
2022-08-08T13:19:05.478Z,25.20
2022-08-08T13:21:53.833Z,26.00
2022-08-08T13:24:40.812Z,26.47
2022-08-08T13:27:13.768Z,24.16
2022-08-08T13:29:48.258Z,26.04
2022-08-08T13:32:15.591Z,26.49
2022-08-08T13:34:42.939Z,23.92
2022-08-08T13:37:10.797Z,25.87
2022-08-08T13:39:50.878Z,26.00
2022-08-08T13:42:19.029Z,25.11
2022-08-08T13:45:09.973Z,24.38
2022-08-08T13:47:40.227Z,26.16
2022-08-08T13:50:36.587Z,25.62
2022-08-08T13:53:24.497Z,25.97
2022-08-08T13:55:59.158Z,25.77
2022-08-08T13:58:31.352Z,25.42
2022-08-08T14:01:16.469Z,25.02
2022-08-08T14:03:54.483Z,24.88
2022-08-08T14:06:33.064Z,24.46
2022-08-08T14:09:24.566Z,25.39
2022-08-08T14:11:49.284Z,25.58
2022-08-08T14:14:21.187Z,25.09
2022-08-08T14:16:52.952Z,26.59
2022-08-08T14:19:57.169Z,27.05
2022-08-08T14:22:24.706Z,27.24
2022-08-08T14:24:58.898Z,26.11
2022-08-08T14:27:29.124Z,27.11
2022-08-08T14:29:58.355Z,26.91
2022-08-08T14:32:30.073Z,26.02
2022-08-08T14:35:04.562Z,27.30
2022-08-08T14:37:57.103Z,26.80
2022-08-08T14:40:26.197Z,27.43
2022-08-08T14:42:57.036Z,28.19
2022-08-08T14:45:47.059Z,28.67
2022-08-08T14:48:27.276Z,27.81
2022-08-08T14:51:06.546Z,27.76
2022-08-08T14:53:55.012Z,28.70
2022-08-08T14:56:24.885Z,28.20
2022-08-08T14:58:54.305Z,27.82
2022-08-08T15:01:37.280Z,27.21
2022-08-08T15:04:09.550Z,28.03
2022-08-08T15:06:37.618Z,28.38
2022-08-08T15:09:07.162Z,27.75
2022-08-08T15:11:42.936Z,28.57
2022-08-08T15:14:15.137Z,27.39
2022-08-08T15:16:42.799Z,28.22
2022-08-08T15:19:11.899Z,28.45
2022-08-08T15:21:42.860Z,28.40
2022-08-08T15:24:13.963Z,27.27
2022-08-08T15:26:44.038Z,28.06
2022-08-08T15:29:22.487Z,28.05
2022-08-08T15:32:03.579Z,29.02
2022-08-08T15:34:39.773Z,28.49
2022-08-08T15:37:07.650Z,29.34
2022-08-08T15:39:38.017Z,29.41
2022-08-08T15:42:10.301Z,29.59
2022-08-08T15:44:38.474Z,29.29
2022-08-08T15:47:07.357Z,29.42
2022-08-08T15:49:44.370Z,29.44
2022-08-08T15:52:15.965Z,29.53
2022-08-08T15:54:47.915Z,28.73
2022-08-08T15:57:19.790Z,28.61
2022-08-08T16:00:06.848Z,28.98
2022-08-08T16:02:36.187Z,29.20
2022-08-08T16:05:09.387Z,28.37
2022-08-08T16:07:51.864Z,29.24
2022-08-08T16:13:11.263Z,29.17
2022-08-08T16:13:31.982Z,28.71
2022-08-08T16:16:16.409Z,28.51
2022-08-08T16:18:57.380Z,28.55
2022-08-08T16:21:31.472Z,28.78
2022-08-08T16:24:03.111Z,28.01
2022-08-08T16:26:33.640Z,27.44
2022-08-08T16:29:03.409Z,27.32
2022-08-08T16:31:37.138Z,27.88
2022-08-08T16:34:04.825Z,27.02
2022-08-08T16:36:33.124Z,27.06
2022-08-08T16:39:01.676Z,26.04
2022-08-08T16:41:51.335Z,26.66
2022-08-08T16:44:28.040Z,26.30
2022-08-08T16:47:21.908Z,25.26
2022-08-08T16:50:12.691Z,26.63
2022-08-08T16:55:01.104Z,25.30
2022-08-08T16:55:55.652Z,26.13
2022-08-08T16:58:20.724Z,25.42
2022-08-08T17:00:48.658Z,26.06
2022-08-08T17:03:18.109Z,26.54
2022-08-08T17:05:53.832Z,26.35
2022-08-08T17:08:23.587Z,26.91
2022-08-08T17:10:57.905Z,26.84
2022-08-08T17:13:27.457Z,27.54
2022-08-08T17:16:15.200Z,27.83
2022-08-08T17:18:43.560Z,27.72
2022-08-08T17:21:13.749Z,28.42
2022-08-08T17:23:58.932Z,27.95
2022-08-08T17:26:29.386Z,28.59
2022-08-08T17:28:58.661Z,28.48
2022-08-08T17:31:43.587Z,29.13
2022-08-08T17:34:36.523Z,29.16
2022-08-08T17:37:03.867Z,29.90
2022-08-08T17:40:05.135Z,30.15
2022-08-08T17:42:21.196Z,30.84
2022-08-08T17:44:52.485Z,30.61
2022-08-08T17:47:27.662Z,30.87
2022-08-08T17:50:01.095Z,31.21
2022-08-08T17:52:30.921Z,31.28
2022-08-08T17:54:58.439Z,32.06
2022-08-08T17:57:26.353Z,32.88
2022-08-08T17:59:58.956Z,33.50
2022-08-08T18:02:30.077Z,35.17
2022-08-08T18:05:04.357Z,35.48
2022-08-08T18:08:15.420Z,35.79
2022-08-08T18:10:20.436Z,37.21
2022-08-08T18:12:59.113Z,38.18
2022-08-08T18:15:28.524Z,38.68
2022-08-08T18:18:09.445Z,38.81
2022-08-08T18:20:59.203Z,39.71
2022-08-08T18:23:27.076Z,39.77
2022-08-08T18:25:56.457Z,39.01
2022-08-08T18:28:28.918Z,39.82
2022-08-08T18:31:02.942Z,39.89
2022-08-08T18:34:12.379Z,39.04
2022-08-08T18:36:23.364Z,40.52
2022-08-08T18:38:52.564Z,41.34
2022-08-08T18:41:19.949Z,40.96
2022-08-08T18:44:07.203Z,41.36
2022-08-08T18:46:55.555Z,42.81
2022-08-08T18:49:32.397Z,41.73
2022-08-08T18:52:18.317Z,41.62
2022-08-08T18:55:01.039Z,42.32
2022-08-08T18:57:42.064Z,42.92
2022-08-08T19:00:16.659Z,42.27
2022-08-08T19:02:55.428Z,42.10
2022-08-08T19:05:32.104Z,40.62
2022-08-08T19:08:25.367Z,40.46
2022-08-08T19:10:57.753Z,40.92
2022-08-08T19:13:52.948Z,40.65
2022-08-08T19:16:15.042Z,40.70
2022-08-08T19:18:53.181Z,40.57
2022-08-08T19:21:30.917Z,41.02
2022-08-08T19:24:05.423Z,41.05
2022-08-08T19:26:34.219Z,41.52
2022-08-08T19:29:01.856Z,41.45
2022-08-08T19:31:31.735Z,40.91
2022-08-08T19:34:35.676Z,41.41
2022-08-08T19:36:52.791Z,41.69
2022-08-08T19:39:22.959Z,41.60
2022-08-08T19:41:51.767Z,41.75
2022-08-08T19:44:34.727Z,41.68
2022-08-08T19:47:06.746Z,41.82
2022-08-08T19:49:37.766Z,41.99
2022-08-08T19:52:06.523Z,41.99
2022-08-08T19:54:34.272Z,41.64
2022-08-08T19:57:04.199Z,41.59
2022-08-08T19:59:35.353Z,41.68
2022-08-08T20:02:04.280Z,42.63
2022-08-08T20:04:35.585Z,44.08
2022-08-08T20:08:27.063Z,44.13
2022-08-08T20:09:55.630Z,44.35
2022-08-08T20:12:34.497Z,44.71
2022-08-08T20:15:14.530Z,45.23
2022-08-08T20:17:45.366Z,44.93
2022-08-08T20:20:16.081Z,45.90
2022-08-08T20:22:54.162Z,45.73
2022-08-08T20:25:26.541Z,46.15
2022-08-08T20:27:57.614Z,45.79
2022-08-08T20:30:38.973Z,46.05
2022-08-08T20:35:58.629Z,45.79
2022-08-08T20:38:33.482Z,46.15
2022-08-08T20:41:05.930Z,46.47
2022-08-08T20:43:48.317Z,46.31
2022-08-08T20:46:20.578Z,46.54
2022-08-08T20:48:51.132Z,46.50
2022-08-08T20:51:20.737Z,46.81
2022-08-08T20:54:00.109Z,46.78
2022-08-08T20:56:35.015Z,46.57
2022-08-08T20:59:08.715Z,46.48
2022-08-08T21:02:06.433Z,45.50
2022-08-08T21:04:27.407Z,46.29
2022-08-08T21:06:55.615Z,46.80
2022-08-08T21:09:23.570Z,46.66
2022-08-08T21:12:03.206Z,46.49
2022-08-08T21:14:34.454Z,46.69
2022-08-08T21:17:05.848Z,46.31
2022-08-08T21:19:45.501Z,45.82
2022-08-08T21:22:14.076Z,46.49
2022-08-08T21:24:52.179Z,46.68
2022-08-08T21:28:06.055Z,46.76
2022-08-08T21:30:17.994Z,46.89
2022-08-08T21:32:51.821Z,46.64
2022-08-08T21:36:16.576Z,46.84
2022-08-08T21:38:16.363Z,47.16
2022-08-08T21:40:55.093Z,47.12
2022-08-08T21:43:30.990Z,46.64
2022-08-08T21:48:01.686Z,47.08
2022-08-08T21:48:53.920Z,47.44
2022-08-08T21:52:09.738Z,47.58
2022-08-08T21:54:34.460Z,47.53
2022-08-08T21:56:59.275Z,47.69
2022-08-08T21:59:43.737Z,48.03
2022-08-08T22:02:16.018Z,47.46
2022-08-08T22:04:46.593Z,46.71
2022-08-08T22:07:13.890Z,47.02
2022-08-08T22:09:44.328Z,47.23
2022-08-08T22:12:17.069Z,47.52
2022-08-08T22:14:47.218Z,47.75
2022-08-08T22:17:19.147Z,47.91
2022-08-08T22:20:11.407Z,47.58
2022-08-08T22:22:38.066Z,47.48
2022-08-08T22:25:12.475Z,47.38
2022-08-08T22:28:02.725Z,47.76
2022-08-08T22:30:40.882Z,48.42
2022-08-08T22:33:22.252Z,47.80
2022-08-08T22:36:05.638Z,47.69
2022-08-08T22:38:48.088Z,47.78
2022-08-08T22:41:21.551Z,47.53
2022-08-08T22:44:02.493Z,47.66
2022-08-08T22:46:32.977Z,48.06
2022-08-08T22:49:00.558Z,47.66
2022-08-08T22:51:29.040Z,47.67
2022-08-08T22:54:33.968Z,49.16
2022-08-08T22:56:47.494Z,48.15
2022-08-08T22:59:18.582Z,48.75
2022-08-08T23:02:01.708Z,49.04
2022-08-08T23:04:32.352Z,48.83
2022-08-08T23:07:02.680Z,49.18
2022-08-08T23:09:31.245Z,48.89
2022-08-08T23:12:27.743Z,49.37
2022-08-08T23:14:59.804Z,49.50
2022-08-08T23:17:53.807Z,49.64
2022-08-08T23:20:21.604Z,50.11
2022-08-08T23:22:55.258Z,50.47
2022-08-08T23:25:23.520Z,50.28
2022-08-08T23:27:54.222Z,50.50
2022-08-08T23:30:22.801Z,50.51
2022-08-08T23:32:51.783Z,50.71
2022-08-08T23:35:19.133Z,51.23
2022-08-08T23:38:02.964Z,50.95
2022-08-08T23:40:31.596Z,51.06
2022-08-08T23:43:02.823Z,51.25
2022-08-08T23:49:02.237Z,51.35
2022-08-08T23:49:04.614Z,51.77
2022-08-08T23:51:12.716Z,51.44
2022-08-08T23:54:04.878Z,52.21
2022-08-08T23:56:34.253Z,51.89
2022-08-08T23:59:02.311Z,51.91
